Joe Creek, South Dakota
Current Conditions -  °F | °C
As of 10:53 AM on Friday 21 Nov 2014 (Local Time) from KPIR Reporting Station
Clear Clear  
Wind Chill: 16°   Ceiling: Unl
Heat Index: 22°   Visibility: 10mi
Dew Point: 17°   Wind: 5mph
Humidity: 82%   Direction: 200°SSW
Pressure: 29.85"   Gusts: NA
Location:  44.5157°N, 99.7243°W
Report Text: KPIR 211653Z AUTO 20004KT 10SM CLR M06/M08 A2985 RMK AO2 SLP134 T10561083
Loading
Personal Weather Stations






























Interactive Weather Map New forecast layout! Learn more

10-Day Weather Forecast

Advertisements
Track Severe Weather on mobile